sensor_id;sensor_type;location;lat;lon;timestamp;temperature;humidity
3308;DHT22;1666;48.898;9.182;2023-05-07T00:00:06;15.00;1.00
3308;DHT22;1666;48.898;9.182;2023-05-07T00:02:37;15.00;1.00
3308;DHT22;1666;48.898;9.182;2023-05-07T00:05:10;15.00;1.00
3308;DHT22;1666;48.898;9.182;2023-05-07T00:07:41;15.00;1.00
3308;DHT22;1666;48.898;9.182;2023-05-07T00:10:11;15.00;1.00
3308;DHT22;1666;48.898;9.182;2023-05-07T00:12:41;15.00;1.00
3308;DHT22;1666;48.898;9.182;2023-05-07T00:15:11;14.90;1.00
3308;DHT22;1666;48.898;9.182;2023-05-07T00:17:41;14.80;1.00
3308;DHT22;1666;48.898;9.182;2023-05-07T00:20:14;14.60;1.00
3308;DHT22;1666;48.898;9.182;2023-05-07T00:22:44;14.50;1.00
3308;DHT22;1666;48.898;9.182;2023-05-07T00:25:14;14.60;1.00
3308;DHT22;1666;48.898;9.182;2023-05-07T00:27:44;14.60;1.00
3308;DHT22;1666;48.898;9.182;2023-05-07T00:30:14;14.60;1.00
3308;DHT22;1666;48.898;9.182;2023-05-07T00:32:44;14.60;1.00
3308;DHT22;1666;48.898;9.182;2023-05-07T00:35:18;14.50;1.00
3308;DHT22;1666;48.898;9.182;2023-05-07T00:37:48;14.40;1.00
3308;DHT22;1666;48.898;9.182;2023-05-07T00:40:18;14.40;1.00
3308;DHT22;1666;48.898;9.182;2023-05-07T00:42:48;14.40;1.00
3308;DHT22;1666;48.898;9.182;2023-05-07T00:45:26;14.30;1.00
3308;DHT22;1666;48.898;9.182;2023-05-07T00:47:59;14.30;1.00
3308;DHT22;1666;48.898;9.182;2023-05-07T00:50:32;14.30;1.00
3308;DHT22;1666;48.898;9.182;2023-05-07T00:53:02;14.20;1.00
3308;DHT22;1666;48.898;9.182;2023-05-07T00:55:34;14.20;1.00
3308;DHT22;1666;48.898;9.182;2023-05-07T00:58:05;14.20;1.00
3308;DHT22;1666;48.898;9.182;2023-05-07T01:00:35;14.20;1.00
3308;DHT22;1666;48.898;9.182;2023-05-07T01:03:05;14.30;1.00
3308;DHT22;1666;48.898;9.182;2023-05-07T01:05:38;14.30;1.00
3308;DHT22;1666;48.898;9.182;2023-05-07T01:08:09;14.30;1.00
3308;DHT22;1666;48.898;9.182;2023-05-07T01:10:40;14.40;1.00
3308;DHT22;1666;48.898;9.182;2023-05-07T01:13:10;14.40;1.00
3308;DHT22;1666;48.898;9.182;2023-05-07T01:15:41;14.40;1.00
3308;DHT22;1666;48.898;9.182;2023-05-07T01:18:11;14.30;1.00
3308;DHT22;1666;48.898;9.182;2023-05-07T01:20:43;14.20;1.00
3308;DHT22;1666;48.898;9.182;2023-05-07T01:23:17;14.20;1.00
3308;DHT22;1666;48.898;9.182;2023-05-07T01:25:51;14.20;1.00
3308;DHT22;1666;48.898;9.182;2023-05-07T01:28:22;14.20;1.00
3308;DHT22;1666;48.898;9.182;2023-05-07T01:31:01;14.20;1.00
3308;DHT22;1666;48.898;9.182;2023-05-07T01:33:34;14.10;1.00
3308;DHT22;1666;48.898;9.182;2023-05-07T01:36:07;14.10;1.00
3308;DHT22;1666;48.898;9.182;2023-05-07T01:38:41;14.20;1.00
3308;DHT22;1666;48.898;9.182;2023-05-07T01:41:11;14.10;1.00
3308;DHT22;1666;48.898;9.182;2023-05-07T01:43:42;14.20;1.00
3308;DHT22;1666;48.898;9.182;2023-05-07T01:46:13;14.30;1.00
3308;DHT22;1666;48.898;9.182;2023-05-07T01:48:44;14.30;1.00
3308;DHT22;1666;48.898;9.182;2023-05-07T01:51:14;14.20;1.00
3308;DHT22;1666;48.898;9.182;2023-05-07T01:53:47;14.30;1.00
3308;DHT22;1666;48.898;9.182;2023-05-07T01:56:18;14.30;1.00
3308;DHT22;1666;48.898;9.182;2023-05-07T01:58:48;14.20;1.00
3308;DHT22;1666;48.898;9.182;2023-05-07T02:01:19;14.20;1.00
3308;DHT22;1666;48.898;9.182;2023-05-07T02:03:49;14.20;1.00
3308;DHT22;1666;48.898;9.182;2023-05-07T02:06:19;14.10;1.00
3308;DHT22;1666;48.898;9.182;2023-05-07T02:08:52;14.10;1.00
3308;DHT22;1666;48.898;9.182;2023-05-07T02:11:21;14.00;1.00
3308;DHT22;1666;48.898;9.182;2023-05-07T02:13:52;14.00;1.00
3308;DHT22;1666;48.898;9.182;2023-05-07T02:16:22;14.00;1.00
3308;DHT22;1666;48.898;9.182;2023-05-07T02:18:52;14.00;1.00
3308;DHT22;1666;48.898;9.182;2023-05-07T02:21:22;14.00;1.00
3308;DHT22;1666;48.898;9.182;2023-05-07T02:23:54;14.00;1.00
3308;DHT22;1666;48.898;9.182;2023-05-07T02:26:24;14.00;1.00
3308;DHT22;1666;48.898;9.182;2023-05-07T02:28:54;14.00;1.00
3308;DHT22;1666;48.898;9.182;2023-05-07T02:31:24;14.00;1.00
3308;DHT22;1666;48.898;9.182;2023-05-07T02:33:54;14.00;1.00
3308;DHT22;1666;48.898;9.182;2023-05-07T02:36:24;13.90;1.00
3308;DHT22;1666;48.898;9.182;2023-05-07T02:38:57;13.90;1.00
3308;DHT22;1666;48.898;9.182;2023-05-07T02:41:27;13.90;1.00
3308;DHT22;1666;48.898;9.182;2023-05-07T02:43:57;13.80;1.00
3308;DHT22;1666;48.898;9.182;2023-05-07T02:46:27;13.60;1.00
3308;DHT22;1666;48.898;9.182;2023-05-07T02:48:57;13.60;2.10
3308;DHT22;1666;48.898;9.182;2023-05-07T02:51:27;13.60;2.10
3308;DHT22;1666;48.898;9.182;2023-05-07T02:54:00;13.50;1.50
3308;DHT22;1666;48.898;9.182;2023-05-07T02:56:30;13.50;2.30
3308;DHT22;1666;48.898;9.182;2023-05-07T02:59:00;13.40;2.60
3308;DHT22;1666;48.898;9.182;2023-05-07T03:01:30;13.30;2.80
3308;DHT22;1666;48.898;9.182;2023-05-07T03:04:00;13.30;4.30
3308;DHT22;1666;48.898;9.182;2023-05-07T03:06:30;13.20;4.40
3308;DHT22;1666;48.898;9.182;2023-05-07T03:09:03;13.20;5.60
3308;DHT22;1666;48.898;9.182;2023-05-07T03:11:33;13.10;6.60
3308;DHT22;1666;48.898;9.182;2023-05-07T03:14:03;13.10;6.80
3308;DHT22;1666;48.898;9.182;2023-05-07T03:16:33;13.10;7.20
3308;DHT22;1666;48.898;9.182;2023-05-07T03:19:03;13.10;8.20
3308;DHT22;1666;48.898;9.182;2023-05-07T03:21:33;13.00;9.60
3308;DHT22;1666;48.898;9.182;2023-05-07T03:24:06;13.00;8.70
3308;DHT22;1666;48.898;9.182;2023-05-07T03:26:36;13.00;9.10
3308;DHT22;1666;48.898;9.182;2023-05-07T03:29:06;13.00;9.50
3308;DHT22;1666;48.898;9.182;2023-05-07T03:31:36;13.00;9.80
3308;DHT22;1666;48.898;9.182;2023-05-07T03:34:06;13.00;9.80
3308;DHT22;1666;48.898;9.182;2023-05-07T03:36:36;12.90;10.90
3308;DHT22;1666;48.898;9.182;2023-05-07T03:39:08;12.80;10.30
3308;DHT22;1666;48.898;9.182;2023-05-07T03:41:38;12.80;11.30
3308;DHT22;1666;48.898;9.182;2023-05-07T03:44:08;12.70;12.30
3308;DHT22;1666;48.898;9.182;2023-05-07T03:46:38;12.70;13.00
3308;DHT22;1666;48.898;9.182;2023-05-07T03:49:08;12.80;12.00
3308;DHT22;1666;48.898;9.182;2023-05-07T03:51:37;12.80;12.30
3308;DHT22;1666;48.898;9.182;2023-05-07T03:54:10;12.80;12.70
3308;DHT22;1666;48.898;9.182;2023-05-07T03:56:40;12.80;12.50
3308;DHT22;1666;48.898;9.182;2023-05-07T03:59:10;12.90;11.80
3308;DHT22;1666;48.898;9.182;2023-05-07T04:01:40;12.90;11.10
3308;DHT22;1666;48.898;9.182;2023-05-07T04:04:10;12.90;9.80
3308;DHT22;1666;48.898;9.182;2023-05-07T04:06:40;13.00;8.80
3308;DHT22;1666;48.898;9.182;2023-05-07T04:09:12;13.00;8.30
3308;DHT22;1666;48.898;9.182;2023-05-07T04:11:42;13.10;8.10
3308;DHT22;1666;48.898;9.182;2023-05-07T04:14:12;13.10;6.90
3308;DHT22;1666;48.898;9.182;2023-05-07T04:16:42;13.20;6.20
3308;DHT22;1666;48.898;9.182;2023-05-07T04:19:12;13.30;5.30
3308;DHT22;1666;48.898;9.182;2023-05-07T04:21:41;13.30;5.00
3308;DHT22;1666;48.898;9.182;2023-05-07T04:24:15;13.40;5.00
3308;DHT22;1666;48.898;9.182;2023-05-07T04:26:45;13.50;2.70
3308;DHT22;1666;48.898;9.182;2023-05-07T04:29:14;13.40;1.90
3308;DHT22;1666;48.898;9.182;2023-05-07T04:31:44;13.50;2.90
3308;DHT22;1666;48.898;9.182;2023-05-07T04:34:14;13.60;1.90
3308;DHT22;1666;48.898;9.182;2023-05-07T04:36:44;13.70;2.80
3308;DHT22;1666;48.898;9.182;2023-05-07T04:39:17;13.60;1.50
3308;DHT22;1666;48.898;9.182;2023-05-07T04:41:47;13.50;2.30
3308;DHT22;1666;48.898;9.182;2023-05-07T04:44:17;13.80;2.50
3308;DHT22;1666;48.898;9.182;2023-05-07T04:46:47;14.10;1.00
3308;DHT22;1666;48.898;9.182;2023-05-07T04:49:17;14.10;1.00
3308;DHT22;1666;48.898;9.182;2023-05-07T04:51:46;14.60;1.00
3308;DHT22;1666;48.898;9.182;2023-05-07T04:54:19;15.40;1.00
3308;DHT22;1666;48.898;9.182;2023-05-07T04:56:49;16.30;1.00
3308;DHT22;1666;48.898;9.182;2023-05-07T04:59:19;17.50;1.00
3308;DHT22;1666;48.898;9.182;2023-05-07T05:01:49;16.80;1.00
3308;DHT22;1666;48.898;9.182;2023-05-07T05:04:19;16.30;1.00
3308;DHT22;1666;48.898;9.182;2023-05-07T05:06:49;15.80;1.00
3308;DHT22;1666;48.898;9.182;2023-05-07T05:09:21;15.60;1.00
3308;DHT22;1666;48.898;9.182;2023-05-07T05:11:52;15.20;1.00
3308;DHT22;1666;48.898;9.182;2023-05-07T05:14:21;14.90;1.00
3308;DHT22;1666;48.898;9.182;2023-05-07T05:16:51;14.90;1.00
3308;DHT22;1666;48.898;9.182;2023-05-07T05:19:21;14.80;1.00
3308;DHT22;1666;48.898;9.182;2023-05-07T05:21:51;15.10;1.00
3308;DHT22;1666;48.898;9.182;2023-05-07T05:24:24;15.10;1.00
3308;DHT22;1666;48.898;9.182;2023-05-07T05:26:54;15.00;1.00
3308;DHT22;1666;48.898;9.182;2023-05-07T05:29:24;14.90;1.00
3308;DHT22;1666;48.898;9.182;2023-05-07T05:31:54;15.20;1.00
3308;DHT22;1666;48.898;9.182;2023-05-07T05:34:24;17.00;1.00
3308;DHT22;1666;48.898;9.182;2023-05-07T05:36:54;19.20;1.00
3308;DHT22;1666;48.898;9.182;2023-05-07T05:39:26;20.00;1.00
3308;DHT22;1666;48.898;9.182;2023-05-07T05:41:56;20.30;1.00
3308;DHT22;1666;48.898;9.182;2023-05-07T05:44:26;19.80;1.00
3308;DHT22;1666;48.898;9.182;2023-05-07T05:46:56;19.20;1.00
3308;DHT22;1666;48.898;9.182;2023-05-07T05:49:26;18.00;1.00
3308;DHT22;1666;48.898;9.182;2023-05-07T05:51:56;17.10;1.00
3308;DHT22;1666;48.898;9.182;2023-05-07T05:54:29;16.90;1.00
3308;DHT22;1666;48.898;9.182;2023-05-07T05:56:59;16.70;1.00
3308;DHT22;1666;48.898;9.182;2023-05-07T05:59:31;16.40;1.00
3308;DHT22;1666;48.898;9.182;2023-05-07T06:02:00;16.40;1.00
3308;DHT22;1666;48.898;9.182;2023-05-07T06:04:30;16.70;1.00
3308;DHT22;1666;48.898;9.182;2023-05-07T06:07:00;16.90;1.00
3308;DHT22;1666;48.898;9.182;2023-05-07T06:09:33;17.00;1.00
3308;DHT22;1666;48.898;9.182;2023-05-07T06:12:03;16.70;1.00
3308;DHT22;1666;48.898;9.182;2023-05-07T06:14:33;16.90;1.00
3308;DHT22;1666;48.898;9.182;2023-05-07T06:17:03;16.90;1.00
3308;DHT22;1666;48.898;9.182;2023-05-07T06:19:33;17.20;1.00
3308;DHT22;1666;48.898;9.182;2023-05-07T06:22:03;17.50;1.00
3308;DHT22;1666;48.898;9.182;2023-05-07T06:24:35;18.50;1.00
3308;DHT22;1666;48.898;9.182;2023-05-07T06:27:05;18.20;1.00
3308;DHT22;1666;48.898;9.182;2023-05-07T06:29:35;17.60;1.00
3308;DHT22;1666;48.898;9.182;2023-05-07T06:32:09;17.00;1.00
3308;DHT22;1666;48.898;9.182;2023-05-07T06:34:39;17.00;1.00
3308;DHT22;1666;48.898;9.182;2023-05-07T06:37:09;17.30;1.00
3308;DHT22;1666;48.898;9.182;2023-05-07T06:39:42;17.90;1.00
3308;DHT22;1666;48.898;9.182;2023-05-07T06:42:12;17.50;1.00
3308;DHT22;1666;48.898;9.182;2023-05-07T06:44:42;18.20;1.00
3308;DHT22;1666;48.898;9.182;2023-05-07T06:47:11;18.50;1.00
3308;DHT22;1666;48.898;9.182;2023-05-07T06:49:42;18.50;1.00
3308;DHT22;1666;48.898;9.182;2023-05-07T06:52:12;18.20;1.00
3308;DHT22;1666;48.898;9.182;2023-05-07T06:54:44;18.40;1.00
3308;DHT22;1666;48.898;9.182;2023-05-07T06:57:14;18.80;1.00
3308;DHT22;1666;48.898;9.182;2023-05-07T06:59:44;19.10;1.00
3308;DHT22;1666;48.898;9.182;2023-05-07T07:02:14;18.70;1.00
3308;DHT22;1666;48.898;9.182;2023-05-07T07:04:44;18.90;1.00
3308;DHT22;1666;48.898;9.182;2023-05-07T07:07:14;18.80;1.00
3308;DHT22;1666;48.898;9.182;2023-05-07T07:09:49;19.30;1.00
3308;DHT22;1666;48.898;9.182;2023-05-07T07:12:19;19.20;1.00
3308;DHT22;1666;48.898;9.182;2023-05-07T07:14:51;19.00;1.00
3308;DHT22;1666;48.898;9.182;2023-05-07T07:17:21;19.40;1.00
3308;DHT22;1666;48.898;9.182;2023-05-07T07:19:51;19.90;1.00
3308;DHT22;1666;48.898;9.182;2023-05-07T07:22:21;20.30;1.00
3308;DHT22;1666;48.898;9.182;2023-05-07T07:24:54;19.90;1.00
3308;DHT22;1666;48.898;9.182;2023-05-07T07:27:24;19.90;1.00
3308;DHT22;1666;48.898;9.182;2023-05-07T07:29:53;19.60;1.00
3308;DHT22;1666;48.898;9.182;2023-05-07T07:32:23;19.00;1.00
3308;DHT22;1666;48.898;9.182;2023-05-07T07:34:53;19.70;1.00
3308;DHT22;1666;48.898;9.182;2023-05-07T07:37:23;19.50;1.00
3308;DHT22;1666;48.898;9.182;2023-05-07T07:39:55;19.00;1.00
3308;DHT22;1666;48.898;9.182;2023-05-07T07:42:25;19.60;1.00
3308;DHT22;1666;48.898;9.182;2023-05-07T07:44:56;19.90;1.00
3308;DHT22;1666;48.898;9.182;2023-05-07T07:47:26;19.70;1.00
3308;DHT22;1666;48.898;9.182;2023-05-07T07:49:56;19.90;1.00
3308;DHT22;1666;48.898;9.182;2023-05-07T07:52:26;19.90;1.00
3308;DHT22;1666;48.898;9.182;2023-05-07T07:54:58;19.80;1.00
3308;DHT22;1666;48.898;9.182;2023-05-07T07:57:29;19.60;1.00
3308;DHT22;1666;48.898;9.182;2023-05-07T07:59:59;19.70;1.00
3308;DHT22;1666;48.898;9.182;2023-05-07T08:02:29;19.60;1.00
3308;DHT22;1666;48.898;9.182;2023-05-07T08:04:59;19.50;1.00
3308;DHT22;1666;48.898;9.182;2023-05-07T08:07:29;19.30;1.00
3308;DHT22;1666;48.898;9.182;2023-05-07T08:10:02;19.40;1.00
3308;DHT22;1666;48.898;9.182;2023-05-07T08:12:32;19.40;1.00
3308;DHT22;1666;48.898;9.182;2023-05-07T08:15:02;19.30;1.00
3308;DHT22;1666;48.898;9.182;2023-05-07T08:17:32;19.20;1.00
3308;DHT22;1666;48.898;9.182;2023-05-07T08:20:03;19.50;1.00
3308;DHT22;1666;48.898;9.182;2023-05-07T08:22:34;19.70;1.00
3308;DHT22;1666;48.898;9.182;2023-05-07T08:25:07;19.70;1.00
3308;DHT22;1666;48.898;9.182;2023-05-07T08:27:37;19.70;1.00
3308;DHT22;1666;48.898;9.182;2023-05-07T08:30:08;19.80;1.00
3308;DHT22;1666;48.898;9.182;2023-05-07T08:32:38;20.00;1.00
3308;DHT22;1666;48.898;9.182;2023-05-07T08:35:09;19.80;1.00
3308;DHT22;1666;48.898;9.182;2023-05-07T08:37:39;19.80;1.00
3308;DHT22;1666;48.898;9.182;2023-05-07T08:40:12;19.90;1.00
3308;DHT22;1666;48.898;9.182;2023-05-07T08:42:44;20.20;1.00
3308;DHT22;1666;48.898;9.182;2023-05-07T08:45:14;20.30;1.00
3308;DHT22;1666;48.898;9.182;2023-05-07T08:47:47;20.40;1.00
3308;DHT22;1666;48.898;9.182;2023-05-07T08:50:20;20.50;1.00
3308;DHT22;1666;48.898;9.182;2023-05-07T08:52:51;21.20;1.00
3308;DHT22;1666;48.898;9.182;2023-05-07T08:55:24;21.30;1.00
3308;DHT22;1666;48.898;9.182;2023-05-07T08:57:54;21.80;1.00
3308;DHT22;1666;48.898;9.182;2023-05-07T09:00:24;22.00;1.00
3308;DHT22;1666;48.898;9.182;2023-05-07T09:02:54;22.00;1.00
3308;DHT22;1666;48.898;9.182;2023-05-07T09:05:24;21.90;1.00
3308;DHT22;1666;48.898;9.182;2023-05-07T09:07:54;22.00;1.00
3308;DHT22;1666;48.898;9.182;2023-05-07T09:10:27;21.90;1.00
3308;DHT22;1666;48.898;9.182;2023-05-07T09:12:56;22.00;1.00
3308;DHT22;1666;48.898;9.182;2023-05-07T09:15:27;21.90;1.00
3308;DHT22;1666;48.898;9.182;2023-05-07T09:17:59;21.60;1.00
3308;DHT22;1666;48.898;9.182;2023-05-07T09:20:31;21.50;1.00
3308;DHT22;1666;48.898;9.182;2023-05-07T09:23:01;21.90;1.00
3308;DHT22;1666;48.898;9.182;2023-05-07T09:25:35;22.10;1.00
3308;DHT22;1666;48.898;9.182;2023-05-07T09:28:05;22.40;1.00
3308;DHT22;1666;48.898;9.182;2023-05-07T09:30:37;23.00;1.00
3308;DHT22;1666;48.898;9.182;2023-05-07T09:33:06;22.70;1.00
3308;DHT22;1666;48.898;9.182;2023-05-07T09:35:37;22.60;1.00
3308;DHT22;1666;48.898;9.182;2023-05-07T09:38:08;22.40;1.00
3308;DHT22;1666;48.898;9.182;2023-05-07T09:40:40;22.90;1.00
3308;DHT22;1666;48.898;9.182;2023-05-07T09:43:10;22.70;1.00
3308;DHT22;1666;48.898;9.182;2023-05-07T09:45:41;22.60;1.00
3308;DHT22;1666;48.898;9.182;2023-05-07T09:48:12;22.60;1.00
3308;DHT22;1666;48.898;9.182;2023-05-07T09:50:49;22.90;1.00
3308;DHT22;1666;48.898;9.182;2023-05-07T09:53:19;22.50;1.00
3308;DHT22;1666;48.898;9.182;2023-05-07T09:55:52;22.70;1.00
3308;DHT22;1666;48.898;9.182;2023-05-07T09:58:23;22.40;1.00
3308;DHT22;1666;48.898;9.182;2023-05-07T10:00:53;22.90;1.00
3308;DHT22;1666;48.898;9.182;2023-05-07T10:03:24;22.80;1.00
3308;DHT22;1666;48.898;9.182;2023-05-07T10:05:58;22.70;1.00
3308;DHT22;1666;48.898;9.182;2023-05-07T10:08:28;22.90;1.00
3308;DHT22;1666;48.898;9.182;2023-05-07T10:11:03;23.20;1.00
3308;DHT22;1666;48.898;9.182;2023-05-07T10:13:33;23.50;1.00
3308;DHT22;1666;48.898;9.182;2023-05-07T10:16:05;23.30;1.00
3308;DHT22;1666;48.898;9.182;2023-05-07T10:18:35;23.50;1.00
3308;DHT22;1666;48.898;9.182;2023-05-07T10:21:08;23.00;1.00
3308;DHT22;1666;48.898;9.182;2023-05-07T10:23:40;23.00;1.00
3308;DHT22;1666;48.898;9.182;2023-05-07T10:26:14;23.20;1.00
3308;DHT22;1666;48.898;9.182;2023-05-07T10:28:47;23.30;1.00
3308;DHT22;1666;48.898;9.182;2023-05-07T10:31:42;23.10;1.00
3308;DHT22;1666;48.898;9.182;2023-05-07T10:34:17;23.30;1.00
3308;DHT22;1666;48.898;9.182;2023-05-07T10:36:49;23.50;1.00
3308;DHT22;1666;48.898;9.182;2023-05-07T10:39:20;23.00;1.00
3308;DHT22;1666;48.898;9.182;2023-05-07T10:41:53;23.20;1.00
3308;DHT22;1666;48.898;9.182;2023-05-07T10:44:26;23.60;1.00
3308;DHT22;1666;48.898;9.182;2023-05-07T10:47:07;23.50;1.00
3308;DHT22;1666;48.898;9.182;2023-05-07T10:50:19;23.50;1.00
3308;DHT22;1666;48.898;9.182;2023-05-07T10:52:42;23.10;1.00
3308;DHT22;1666;48.898;9.182;2023-05-07T10:55:22;23.20;1.00
3308;DHT22;1666;48.898;9.182;2023-05-07T10:57:56;23.20;1.00
3308;DHT22;1666;48.898;9.182;2023-05-07T11:01:00;23.50;1.00
3308;DHT22;1666;48.898;9.182;2023-05-07T11:03:30;23.70;1.00
3308;DHT22;1666;48.898;9.182;2023-05-07T11:06:11;23.60;1.00
3308;DHT22;1666;48.898;9.182;2023-05-07T11:08:54;23.50;1.00
3308;DHT22;1666;48.898;9.182;2023-05-07T11:11:54;23.30;1.00
3308;DHT22;1666;48.898;9.182;2023-05-07T11:17:23;23.00;1.00
3308;DHT22;1666;48.898;9.182;2023-05-07T11:19:57;23.10;1.00
3308;DHT22;1666;48.898;9.182;2023-05-07T11:22:37;23.10;1.00
3308;DHT22;1666;48.898;9.182;2023-05-07T11:25:08;23.20;1.00
3308;DHT22;1666;48.898;9.182;2023-05-07T11:27:38;23.50;1.00
3308;DHT22;1666;48.898;9.182;2023-05-07T11:30:09;23.40;1.00
3308;DHT22;1666;48.898;9.182;2023-05-07T11:32:42;23.40;1.00
3308;DHT22;1666;48.898;9.182;2023-05-07T11:35:12;23.40;1.00
3308;DHT22;1666;48.898;9.182;2023-05-07T11:37:44;23.40;1.00
3308;DHT22;1666;48.898;9.182;2023-05-07T11:40:15;23.20;1.00
3308;DHT22;1666;48.898;9.182;2023-05-07T11:42:45;23.10;1.00
3308;DHT22;1666;48.898;9.182;2023-05-07T11:45:23;23.20;1.00
3308;DHT22;1666;48.898;9.182;2023-05-07T11:47:56;23.30;1.00
3308;DHT22;1666;48.898;9.182;2023-05-07T11:50:26;23.40;1.00
3308;DHT22;1666;48.898;9.182;2023-05-07T11:52:56;23.40;1.00
3308;DHT22;1666;48.898;9.182;2023-05-07T11:55:26;23.60;1.00
3308;DHT22;1666;48.898;9.182;2023-05-07T11:57:56;23.50;1.00
3308;DHT22;1666;48.898;9.182;2023-05-07T12:00:26;23.40;1.00
3308;DHT22;1666;48.898;9.182;2023-05-07T12:03:03;23.50;1.00
3308;DHT22;1666;48.898;9.182;2023-05-07T12:05:33;23.60;1.00
3308;DHT22;1666;48.898;9.182;2023-05-07T12:08:04;23.80;1.00
3308;DHT22;1666;48.898;9.182;2023-05-07T12:10:34;23.70;1.00
3308;DHT22;1666;48.898;9.182;2023-05-07T12:13:14;23.90;1.00
3308;DHT22;1666;48.898;9.182;2023-05-07T12:15:44;23.70;1.00
3308;DHT22;1666;48.898;9.182;2023-05-07T12:18:17;23.90;1.00
3308;DHT22;1666;48.898;9.182;2023-05-07T12:20:48;23.80;1.00
3308;DHT22;1666;48.898;9.182;2023-05-07T12:23:18;23.80;1.00
3308;DHT22;1666;48.898;9.182;2023-05-07T12:25:48;23.80;1.00
3308;DHT22;1666;48.898;9.182;2023-05-07T12:28:19;23.80;1.00
3308;DHT22;1666;48.898;9.182;2023-05-07T12:30:50;23.60;1.00
3308;DHT22;1666;48.898;9.182;2023-05-07T12:33:26;23.70;1.00
3308;DHT22;1666;48.898;9.182;2023-05-07T12:35:58;23.80;1.00
3308;DHT22;1666;48.898;9.182;2023-05-07T12:38:36;23.90;1.00
3308;DHT22;1666;48.898;9.182;2023-05-07T12:41:08;24.00;1.00
3308;DHT22;1666;48.898;9.182;2023-05-07T12:43:39;24.00;1.00
3308;DHT22;1666;48.898;9.182;2023-05-07T12:46:09;23.90;1.00
3308;DHT22;1666;48.898;9.182;2023-05-07T12:48:46;23.80;1.00
3308;DHT22;1666;48.898;9.182;2023-05-07T12:51:15;23.80;1.00
3308;DHT22;1666;48.898;9.182;2023-05-07T12:53:45;23.90;1.00
3308;DHT22;1666;48.898;9.182;2023-05-07T12:56:16;23.80;1.00
3308;DHT22;1666;48.898;9.182;2023-05-07T12:58:48;23.80;1.00
3308;DHT22;1666;48.898;9.182;2023-05-07T13:01:18;23.70;1.00
3308;DHT22;1666;48.898;9.182;2023-05-07T13:03:53;23.70;1.00
3308;DHT22;1666;48.898;9.182;2023-05-07T13:06:23;23.40;1.00
3308;DHT22;1666;48.898;9.182;2023-05-07T13:08:53;22.70;1.00
3308;DHT22;1666;48.898;9.182;2023-05-07T13:11:23;22.60;1.00
3308;DHT22;1666;48.898;9.182;2023-05-07T13:13:53;22.30;1.00
3308;DHT22;1666;48.898;9.182;2023-05-07T13:16:23;21.60;1.00
3308;DHT22;1666;48.898;9.182;2023-05-07T13:18:55;21.20;1.00
3308;DHT22;1666;48.898;9.182;2023-05-07T13:21:25;21.00;1.00
3308;DHT22;1666;48.898;9.182;2023-05-07T13:23:57;20.90;1.00
3308;DHT22;1666;48.898;9.182;2023-05-07T13:26:27;21.00;1.00
3308;DHT22;1666;48.898;9.182;2023-05-07T13:28:57;20.70;1.00
3308;DHT22;1666;48.898;9.182;2023-05-07T13:31:27;20.60;1.00
3308;DHT22;1666;48.898;9.182;2023-05-07T13:34:00;20.80;1.00
3308;DHT22;1666;48.898;9.182;2023-05-07T13:36:30;20.70;1.00
3308;DHT22;1666;48.898;9.182;2023-05-07T13:39:03;20.50;1.00
3308;DHT22;1666;48.898;9.182;2023-05-07T13:41:33;20.30;1.00
3308;DHT22;1666;48.898;9.182;2023-05-07T13:44:03;20.00;1.00
3308;DHT22;1666;48.898;9.182;2023-05-07T13:46:33;19.50;1.00
3308;DHT22;1666;48.898;9.182;2023-05-07T13:49:06;19.20;1.00
3308;DHT22;1666;48.898;9.182;2023-05-07T13:51:38;19.10;1.00
3308;DHT22;1666;48.898;9.182;2023-05-07T13:54:07;18.80;1.00
3308;DHT22;1666;48.898;9.182;2023-05-07T13:56:39;18.80;1.00
3308;DHT22;1666;48.898;9.182;2023-05-07T13:59:09;18.80;1.00
3308;DHT22;1666;48.898;9.182;2023-05-07T14:01:41;19.00;1.00
3308;DHT22;1666;48.898;9.182;2023-05-07T14:04:13;19.10;1.00
3308;DHT22;1666;48.898;9.182;2023-05-07T14:06:43;19.30;1.00
3308;DHT22;1666;48.898;9.182;2023-05-07T14:09:13;19.40;1.00
3308;DHT22;1666;48.898;9.182;2023-05-07T14:11:43;19.40;1.00
3308;DHT22;1666;48.898;9.182;2023-05-07T14:14:14;19.40;1.00
3308;DHT22;1666;48.898;9.182;2023-05-07T14:16:44;19.40;1.00
3308;DHT22;1666;48.898;9.182;2023-05-07T14:19:19;19.50;1.00
3308;DHT22;1666;48.898;9.182;2023-05-07T14:21:49;19.60;1.00
3308;DHT22;1666;48.898;9.182;2023-05-07T14:24:19;19.50;1.00
3308;DHT22;1666;48.898;9.182;2023-05-07T14:27:04;19.10;1.00
3308;DHT22;1666;48.898;9.182;2023-05-07T14:29:33;18.70;1.00
3308;DHT22;1666;48.898;9.182;2023-05-07T14:32:04;18.70;1.00
3308;DHT22;1666;48.898;9.182;2023-05-07T14:34:37;18.50;1.00
3308;DHT22;1666;48.898;9.182;2023-05-07T14:37:07;18.50;1.00
3308;DHT22;1666;48.898;9.182;2023-05-07T14:39:37;18.20;1.00
3308;DHT22;1666;48.898;9.182;2023-05-07T14:42:07;18.30;1.00
3308;DHT22;1666;48.898;9.182;2023-05-07T14:44:38;18.10;1.00
3308;DHT22;1666;48.898;9.182;2023-05-07T14:47:09;18.00;1.00
3308;DHT22;1666;48.898;9.182;2023-05-07T14:49:41;18.10;1.00
3308;DHT22;1666;48.898;9.182;2023-05-07T14:52:11;17.90;1.00
3308;DHT22;1666;48.898;9.182;2023-05-07T14:54:41;17.70;1.00
3308;DHT22;1666;48.898;9.182;2023-05-07T14:57:14;17.70;1.00
3308;DHT22;1666;48.898;9.182;2023-05-07T14:59:45;17.60;1.00
3308;DHT22;1666;48.898;9.182;2023-05-07T15:02:16;17.50;1.00
3308;DHT22;1666;48.898;9.182;2023-05-07T15:04:50;17.50;1.00
3308;DHT22;1666;48.898;9.182;2023-05-07T15:07:21;17.50;1.00
3308;DHT22;1666;48.898;9.182;2023-05-07T15:09:51;17.50;1.00
3308;DHT22;1666;48.898;9.182;2023-05-07T15:12:21;17.50;1.00
3308;DHT22;1666;48.898;9.182;2023-05-07T15:14:50;17.20;1.00
3308;DHT22;1666;48.898;9.182;2023-05-07T15:17:20;17.20;1.00
3308;DHT22;1666;48.898;9.182;2023-05-07T15:19:53;17.40;1.00
3308;DHT22;1666;48.898;9.182;2023-05-07T15:22:23;17.40;1.00
3308;DHT22;1666;48.898;9.182;2023-05-07T15:24:53;17.40;1.00
3308;DHT22;1666;48.898;9.182;2023-05-07T15:27:26;17.40;1.10
3308;DHT22;1666;48.898;9.182;2023-05-07T15:29:57;17.40;2.00
3308;DHT22;1666;48.898;9.182;2023-05-07T15:32:27;17.30;4.40
3308;DHT22;1666;48.898;9.182;2023-05-07T15:34:59;17.10;2.40
3308;DHT22;1666;48.898;9.182;2023-05-07T15:37:30;17.10;4.30
3308;DHT22;1666;48.898;9.182;2023-05-07T15:40:00;17.10;6.70
3308;DHT22;1666;48.898;9.182;2023-05-07T15:42:32;17.00;6.20
3308;DHT22;1666;48.898;9.182;2023-05-07T15:45:02;17.00;6.60
3308;DHT22;1666;48.898;9.182;2023-05-07T15:47:33;17.00;6.00
3308;DHT22;1666;48.898;9.182;2023-05-07T15:50:07;17.10;5.20
3308;DHT22;1666;48.898;9.182;2023-05-07T15:52:37;17.00;4.10
3308;DHT22;1666;48.898;9.182;2023-05-07T15:55:08;17.00;6.40
3308;DHT22;1666;48.898;9.182;2023-05-07T15:57:38;17.20;9.70
3308;DHT22;1666;48.898;9.182;2023-05-07T16:00:09;17.20;11.40
3308;DHT22;1666;48.898;9.182;2023-05-07T16:02:40;17.10;11.60
3308;DHT22;1666;48.898;9.182;2023-05-07T16:05:13;17.10;10.40
3308;DHT22;1666;48.898;9.182;2023-05-07T16:07:42;17.10;12.10
3308;DHT22;1666;48.898;9.182;2023-05-07T16:10:13;17.00;14.30
3308;DHT22;1666;48.898;9.182;2023-05-07T16:12:43;16.90;16.20
3308;DHT22;1666;48.898;9.182;2023-05-07T16:15:13;16.80;16.10
3308;DHT22;1666;48.898;9.182;2023-05-07T16:17:45;16.60;19.00
3308;DHT22;1666;48.898;9.182;2023-05-07T16:20:20;16.60;21.50
3308;DHT22;1666;48.898;9.182;2023-05-07T16:22:51;16.60;23.70
3308;DHT22;1666;48.898;9.182;2023-05-07T16:25:21;16.70;24.90
3308;DHT22;1666;48.898;9.182;2023-05-07T16:27:52;16.60;23.60
3308;DHT22;1666;48.898;9.182;2023-05-07T16:30:22;16.50;24.00
3308;DHT22;1666;48.898;9.182;2023-05-07T16:32:52;16.60;24.70
3308;DHT22;1666;48.898;9.182;2023-05-07T16:35:24;16.60;24.40
3308;DHT22;1666;48.898;9.182;2023-05-07T16:37:54;16.60;22.70
3308;DHT22;1666;48.898;9.182;2023-05-07T16:40:24;16.60;23.10
3308;DHT22;1666;48.898;9.182;2023-05-07T16:42:54;16.50;23.00
3308;DHT22;1666;48.898;9.182;2023-05-07T16:45:24;16.50;20.80